createdAt,value
2019-05-03T00:00:22.367Z,10.53
2019-05-03T00:01:22.060Z,10.44
2019-05-03T00:02:22.036Z,10.52
2019-05-03T00:03:22.481Z,10.46
2019-05-03T00:04:22.431Z,10.51
2019-05-03T00:05:22.104Z,10.47
2019-05-03T00:06:22.638Z,10.53
2019-05-03T00:07:22.330Z,10.46
2019-05-03T00:08:22.640Z,10.52
2019-05-03T00:09:22.503Z,10.58
2019-05-03T00:10:22.368Z,10.55
2019-05-03T00:11:22.145Z,10.46
2019-05-03T00:12:22.225Z,10.43
2019-05-03T00:13:21.958Z,10.44
2019-05-03T00:14:21.857Z,10.40
2019-05-03T00:15:21.716Z,10.47
2019-05-03T00:16:21.961Z,10.43
2019-05-03T00:17:21.911Z,10.46
2019-05-03T00:18:22.118Z,10.52
2019-05-03T00:19:21.990Z,10.44
2019-05-03T00:20:21.900Z,10.51
2019-05-03T00:21:21.951Z,10.53
2019-05-03T00:22:21.772Z,10.53
2019-05-03T00:23:22.906Z,10.51
2019-05-03T00:24:22.634Z,10.53
2019-05-03T00:25:22.160Z,10.55
2019-05-03T00:26:22.588Z,10.52
2019-05-03T00:27:21.868Z,10.40
2019-05-03T00:28:21.745Z,10.53
2019-05-03T00:29:21.999Z,10.53
2019-05-03T00:30:22.565Z,10.47
2019-05-03T00:31:22.591Z,10.51
2019-05-03T00:32:21.741Z,10.53
2019-05-03T00:33:22.432Z,10.51
2019-05-03T00:34:21.851Z,10.60
2019-05-03T00:35:22.584Z,10.52
2019-05-03T00:36:22.334Z,10.40
2019-05-03T00:37:22.077Z,10.47
2019-05-03T00:38:21.853Z,10.52
2019-05-03T00:39:21.692Z,10.53
2019-05-03T00:40:22.752Z,10.53
2019-05-03T00:41:21.524Z,10.51
2019-05-03T00:42:22.495Z,10.51
2019-05-03T00:43:22.258Z,10.56
2019-05-03T00:44:22.199Z,10.52
2019-05-03T00:45:22.111Z,10.55
2019-05-03T00:46:22.017Z,10.52
2019-05-03T00:47:22.204Z,10.47
2019-05-03T00:48:21.926Z,10.46
2019-05-03T00:49:22.566Z,10.55
2019-05-03T00:50:22.570Z,10.52
2019-05-03T00:51:22.605Z,10.44
2019-05-03T00:52:22.376Z,10.44
2019-05-03T00:53:22.433Z,10.52
2019-05-03T00:54:22.305Z,10.55
2019-05-03T00:55:22.038Z,10.55
2019-05-03T00:56:21.605Z,10.52
2019-05-03T00:57:22.579Z,10.51
2019-05-03T00:58:22.376Z,10.44
2019-05-03T00:59:22.149Z,10.53
2019-05-03T01:00:21.790Z,10.37
2019-05-03T01:01:22.411Z,10.51
2019-05-03T01:02:22.321Z,10.44
2019-05-03T01:03:21.921Z,10.46
2019-05-03T01:04:22.253Z,10.52
2019-05-03T01:05:22.523Z,10.40
2019-05-03T01:06:22.355Z,10.46
2019-05-03T01:07:22.254Z,10.53
2019-05-03T01:08:22.036Z,10.46
2019-05-03T01:09:22.431Z,10.43
2019-05-03T01:10:22.421Z,10.40
2019-05-03T01:11:22.056Z,10.44
2019-05-03T01:12:21.955Z,10.52
2019-05-03T01:13:21.821Z,10.58
2019-05-03T01:14:20.262Z,10.43
2019-05-03T01:15:21.551Z,10.47
2019-05-03T01:16:20.213Z,10.44
2019-05-03T01:17:22.265Z,10.52
2019-05-03T01:18:21.815Z,10.53
2019-05-03T01:19:20.141Z,10.44
2019-05-03T01:20:20.114Z,10.46
2019-05-03T01:21:22.309Z,10.51
2019-05-03T01:22:20.071Z,10.46
2019-05-03T01:23:21.822Z,10.37
2019-05-03T01:24:21.740Z,10.42
2019-05-03T01:25:32.034Z,10.43
2019-05-03T01:26:19.973Z,10.43
2019-05-03T01:27:21.822Z,10.47
2019-05-03T01:28:21.552Z,10.42
2019-05-03T01:29:19.894Z,10.46
2019-05-03T01:30:19.866Z,10.43
2019-05-03T01:31:19.850Z,10.53
2019-05-03T01:32:19.818Z,10.47
2019-05-03T01:33:19.792Z,10.55
2019-05-03T01:34:21.775Z,10.42
2019-05-03T01:35:21.782Z,10.52
2019-05-03T01:36:19.718Z,10.47
2019-05-03T01:37:19.692Z,10.40
2019-05-03T01:38:19.670Z,10.43
2019-05-03T01:39:19.644Z,10.51
2019-05-03T01:40:19.619Z,10.58
2019-05-03T01:41:21.600Z,10.47
2019-05-03T01:42:19.569Z,10.46
2019-05-03T01:43:19.546Z,10.40
2019-05-03T01:44:19.520Z,10.39
2019-05-03T01:45:19.496Z,10.26
2019-05-03T01:46:19.470Z,10.36
2019-05-03T01:47:19.445Z,10.32
2019-05-03T01:48:19.421Z,10.26
2019-05-03T01:49:19.396Z,10.21
2019-05-03T01:50:19.380Z,10.22
2019-05-03T01:51:19.347Z,10.24
2019-05-03T01:52:19.322Z,10.22
2019-05-03T01:53:19.296Z,10.36
2019-05-03T01:54:19.273Z,10.25
2019-05-03T01:55:19.248Z,10.28
2019-05-03T01:56:19.224Z,10.30
2019-05-03T01:57:19.198Z,10.22
2019-05-03T01:58:19.174Z,10.14
2019-05-03T01:59:19.148Z,10.26
2019-05-03T02:00:19.124Z,10.34
2019-05-03T02:01:19.099Z,10.25
2019-05-03T02:02:19.073Z,10.28
2019-05-03T02:03:19.050Z,10.32
2019-05-03T02:04:19.025Z,10.43
2019-05-03T02:05:19.000Z,10.36
2019-05-03T02:06:18.975Z,10.40
2019-05-03T02:07:18.953Z,10.25
2019-05-03T02:08:18.925Z,10.42
2019-05-03T02:09:18.902Z,10.26
2019-05-03T02:10:18.876Z,10.15
2019-05-03T02:11:18.851Z,10.28
2019-05-03T02:12:18.826Z,10.22
2019-05-03T02:13:18.804Z,10.17
2019-05-03T02:14:18.776Z,10.42
2019-05-03T02:15:18.752Z,10.37
2019-05-03T02:16:18.727Z,10.15
2019-05-03T02:17:18.703Z,10.19
2019-05-03T02:18:18.677Z,10.04
2019-05-03T02:19:18.653Z,10.21
2019-05-03T02:20:18.628Z,10.17
2019-05-03T02:21:18.602Z,10.30
2019-05-03T02:22:18.578Z,10.32
2019-05-03T02:23:18.553Z,10.32
2019-05-03T02:24:18.528Z,10.30
2019-05-03T02:25:18.502Z,10.12
2019-05-03T02:26:18.477Z,10.18
2019-05-03T02:27:18.453Z,10.07
2019-05-03T02:28:18.428Z,10.15
2019-05-03T02:29:18.404Z,10.14
2019-05-03T02:30:18.379Z,10.18
2019-05-03T02:31:18.371Z,10.15
2019-05-03T02:32:18.330Z,10.12
2019-05-03T02:33:18.303Z,9.91
2019-05-03T02:34:18.279Z,10.00
2019-05-03T02:35:18.254Z,9.96
2019-05-03T02:36:18.230Z,10.10
2019-05-03T02:37:18.205Z,9.99
2019-05-03T02:38:18.179Z,9.94
2019-05-03T02:39:18.155Z,9.93
2019-05-03T02:40:20.633Z,9.97
2019-05-03T02:41:18.104Z,9.83
2019-05-03T02:42:19.580Z,9.78
2019-05-03T02:43:18.054Z,9.83
2019-05-03T02:44:18.028Z,9.88
2019-05-03T02:45:18.004Z,9.81
2019-05-03T02:46:17.992Z,9.83
2019-05-03T02:47:17.953Z,9.76
2019-05-03T02:48:17.928Z,9.82
2019-05-03T02:49:17.902Z,9.66
2019-05-03T02:50:17.877Z,9.66
2019-05-03T02:51:17.853Z,9.61
2019-05-03T02:52:17.826Z,9.64
2019-05-03T02:53:17.805Z,9.63
2019-05-03T02:54:17.775Z,9.60
2019-05-03T02:55:17.751Z,9.57
2019-05-03T02:56:22.345Z,9.63
2019-05-03T02:57:17.703Z,9.67
2019-05-03T02:58:17.674Z,9.67
2019-05-03T02:59:17.649Z,9.64
2019-05-03T03:00:17.626Z,9.66
2019-05-03T03:01:17.600Z,9.76
2019-05-03T03:02:17.573Z,9.78
2019-05-03T03:03:17.547Z,9.60
2019-05-03T03:04:17.521Z,9.64
2019-05-03T03:05:17.511Z,9.50
2019-05-03T03:06:17.476Z,9.42
2019-05-03T03:07:17.445Z,9.60
2019-05-03T03:08:17.432Z,9.42
2019-05-03T03:09:17.394Z,9.53
2019-05-03T03:10:17.370Z,9.52
2019-05-03T03:11:17.342Z,9.46
2019-05-03T03:12:17.317Z,9.56
2019-05-03T03:13:17.292Z,9.45
2019-05-03T03:14:17.266Z,9.49
2019-05-03T03:15:17.240Z,9.39
2019-05-03T03:16:20.514Z,9.43
2019-05-03T03:17:17.194Z,9.46
2019-05-03T03:18:17.165Z,9.38
2019-05-03T03:19:17.138Z,9.40
2019-05-03T03:20:17.114Z,9.35
2019-05-03T03:21:17.096Z,9.56
2019-05-03T03:22:17.063Z,9.42
2019-05-03T03:23:18.006Z,9.38
2019-05-03T03:24:17.407Z,9.52
2019-05-03T03:25:17.742Z,9.45
2019-05-03T03:26:32.436Z,9.45
2019-05-03T03:27:16.932Z,9.45
2019-05-03T03:28:16.917Z,9.46
2019-05-03T03:29:16.882Z,9.52
2019-05-03T03:30:17.435Z,9.48
2019-05-03T03:31:17.965Z,9.43
2019-05-03T03:32:18.554Z,9.34
2019-05-03T03:33:17.781Z,9.39
2019-05-03T03:34:18.380Z,9.46
2019-05-03T03:35:20.647Z,9.39
2019-05-03T03:37:16.686Z,9.30
2019-05-03T03:38:16.652Z,9.30
2019-05-03T03:39:16.627Z,9.31
2019-05-03T03:40:16.601Z,9.35
2019-05-03T03:41:16.578Z,9.20
2019-05-03T03:42:16.570Z,9.16
2019-05-03T03:43:16.523Z,9.13
2019-05-03T03:44:16.498Z,9.25
2019-05-03T03:45:16.808Z,9.28
2019-05-03T03:46:16.445Z,9.21
2019-05-03T03:47:17.028Z,9.18
2019-05-03T03:48:16.403Z,9.10
2019-05-03T03:49:16.366Z,9.23
2019-05-03T03:50:16.343Z,9.13
2019-05-03T03:51:16.317Z,9.21
2019-05-03T03:52:16.292Z,9.24
2019-05-03T03:53:16.265Z,9.18
2019-05-03T03:54:16.239Z,9.09
2019-05-03T03:55:16.285Z,9.04
2019-05-03T03:56:16.217Z,8.99
2019-05-03T03:57:16.173Z,8.99
2019-05-03T03:58:22.401Z,9.01
2019-05-03T03:59:16.112Z,9.02
2019-05-03T04:00:16.415Z,9.04
2019-05-03T04:01:16.059Z,9.02
2019-05-03T04:02:16.785Z,9.04
2019-05-03T04:03:16.012Z,9.01
2019-05-03T04:04:16.224Z,9.06
2019-05-03T04:05:16.098Z,9.05
2019-05-03T04:06:15.931Z,9.01
2019-05-03T04:07:16.169Z,9.16
2019-05-03T04:08:16.352Z,9.18
2019-05-03T04:09:16.149Z,9.18
2019-05-03T04:10:15.859Z,9.09
2019-05-03T04:11:15.815Z,8.97
2019-05-03T04:12:16.499Z,8.97
2019-05-03T04:13:16.184Z,9.09
2019-05-03T04:14:16.246Z,9.06
2019-05-03T04:15:16.016Z,9.13
2019-05-03T04:16:20.312Z,9.10
2019-05-03T04:17:15.648Z,9.04
2019-05-03T04:18:16.535Z,9.06
2019-05-03T04:19:17.340Z,9.04
2019-05-03T04:20:16.213Z,9.05
2019-05-03T04:21:16.222Z,9.06
2019-05-03T04:22:16.453Z,9.04
2019-05-03T04:23:16.306Z,9.09
2019-05-03T04:24:16.324Z,9.12
2019-05-03T04:25:15.740Z,8.99
2019-05-03T04:26:16.233Z,9.04
2019-05-03T04:27:22.201Z,9.02
2019-05-03T04:28:16.192Z,9.06
2019-05-03T04:29:16.178Z,9.02
2019-05-03T04:30:16.571Z,9.05
2019-05-03T04:31:15.439Z,9.05
2019-05-03T04:32:15.868Z,9.02
2019-05-03T04:33:16.025Z,9.16
2019-05-03T04:34:16.212Z,8.99
2019-05-03T04:35:16.435Z,9.15
2019-05-03T04:36:15.922Z,9.13
2019-05-03T04:37:16.125Z,9.10
2019-05-03T04:38:16.270Z,9.12
2019-05-03T04:39:19.156Z,9.21
2019-05-03T04:40:15.794Z,9.16
2019-05-03T04:41:15.921Z,9.35
2019-05-03T04:42:16.591Z,9.35
2019-05-03T04:43:16.470Z,9.20
2019-05-03T04:44:15.415Z,9.24
2019-05-03T04:45:16.547Z,9.35
2019-05-03T04:46:16.348Z,9.35
2019-05-03T04:47:15.649Z,9.30
2019-05-03T04:48:15.968Z,9.38
2019-05-03T04:49:15.198Z,9.39
2019-05-03T04:50:16.324Z,9.42
2019-05-03T04:51:16.682Z,9.28
2019-05-03T04:52:16.521Z,9.23
2019-05-03T04:53:16.149Z,9.24
2019-05-03T04:54:16.444Z,9.23
2019-05-03T04:55:15.996Z,9.32
2019-05-03T04:56:16.948Z,9.40
2019-05-03T04:57:16.031Z,9.50
2019-05-03T04:58:16.112Z,9.56
2019-05-03T04:59:15.894Z,9.42
2019-05-03T05:00:16.025Z,9.48
2019-05-03T05:01:15.742Z,9.46
2019-05-03T05:02:15.923Z,9.34
2019-05-03T05:03:15.113Z,9.34
2019-05-03T05:04:16.058Z,9.38
2019-05-03T05:05:15.402Z,9.28
2019-05-03T05:06:15.511Z,9.45
2019-05-03T05:07:15.909Z,9.48
2019-05-03T05:08:16.314Z,9.42
2019-05-03T05:09:15.522Z,9.49
2019-05-03T05:10:15.297Z,9.52
2019-05-03T05:11:15.839Z,9.50
2019-05-03T05:12:16.146Z,9.52
2019-05-03T05:13:15.723Z,9.56
2019-05-03T05:14:15.338Z,9.48
2019-05-03T05:15:15.621Z,9.57
2019-05-03T05:16:16.057Z,9.42
2019-05-03T05:17:16.280Z,9.49
2019-05-03T05:18:15.989Z,9.58
2019-05-03T05:19:15.214Z,9.53
2019-05-03T05:20:14.471Z,9.48
2019-05-03T05:21:14.984Z,9.43
2019-05-03T05:22:15.508Z,9.50
2019-05-03T05:23:14.743Z,9.56
2019-05-03T05:24:15.158Z,9.64
2019-05-03T05:25:14.823Z,9.56
2019-05-03T05:26:14.476Z,9.58
2019-05-03T05:27:14.654Z,9.46
2019-05-03T05:28:14.995Z,9.52
2019-05-03T05:29:14.640Z,9.61
2019-05-03T05:30:14.973Z,9.63
2019-05-03T05:31:15.171Z,9.67
2019-05-03T05:32:14.474Z,9.70
2019-05-03T05:33:14.547Z,9.75
2019-05-03T05:34:15.343Z,9.75
2019-05-03T05:35:14.375Z,9.70
2019-05-03T05:36:15.320Z,9.78
2019-05-03T05:37:14.528Z,9.67
2019-05-03T05:38:14.982Z,9.56
2019-05-03T05:39:15.289Z,9.48
2019-05-03T05:40:15.514Z,9.50
2019-05-03T05:41:15.485Z,9.58
2019-05-03T05:42:14.906Z,9.48
2019-05-03T05:43:15.213Z,9.53
2019-05-03T05:44:14.517Z,9.38
2019-05-03T05:45:15.306Z,9.38
2019-05-03T05:46:14.659Z,9.45
2019-05-03T05:47:14.990Z,9.52
2019-05-03T05:48:15.304Z,9.46
2019-05-03T05:49:14.698Z,9.53
2019-05-03T05:50:14.914Z,9.53
2019-05-03T05:51:14.146Z,9.60
2019-05-03T05:52:15.314Z,9.57
2019-05-03T05:53:15.128Z,9.52
2019-05-03T05:54:14.396Z,9.66
2019-05-03T05:55:14.865Z,9.53
2019-05-03T05:56:13.138Z,9.61
2019-05-03T05:57:14.906Z,9.71
2019-05-03T05:58:13.090Z,9.83
2019-05-03T05:59:14.853Z,9.60
2019-05-03T06:00:15.210Z,9.58
2019-05-03T06:01:14.603Z,9.43
2019-05-03T06:02:14.949Z,9.39
2019-05-03T06:03:14.839Z,9.39
2019-05-03T06:04:12.938Z,9.46
2019-05-03T06:05:14.683Z,9.46
2019-05-03T06:06:15.293Z,9.66
2019-05-03T06:07:14.783Z,9.67
2019-05-03T06:08:14.985Z,9.58
2019-05-03T06:09:12.812Z,9.61
2019-05-03T06:10:14.747Z,9.67
2019-05-03T06:11:14.755Z,9.61
2019-05-03T06:12:14.748Z,9.73
2019-05-03T06:13:12.712Z,9.61
2019-05-03T06:14:12.687Z,9.85
2019-05-03T06:15:12.664Z,9.67
2019-05-03T06:16:12.638Z,9.85
2019-05-03T06:17:14.533Z,9.85
2019-05-03T06:18:14.564Z,9.70
2019-05-03T06:19:14.604Z,9.81
2019-05-03T06:20:12.547Z,9.78
2019-05-03T06:21:12.514Z,9.79
2019-05-03T06:22:12.490Z,9.82
2019-05-03T06:23:14.344Z,9.97
2019-05-03T06:24:12.440Z,10.06
2019-05-03T06:25:12.416Z,10.06
2019-05-03T06:26:12.390Z,10.15
2019-05-03T06:27:12.366Z,10.30
2019-05-03T06:28:18.341Z,10.12
2019-05-03T06:29:12.318Z,10.01
2019-05-03T06:30:12.292Z,9.91
2019-05-03T06:31:12.268Z,10.01
2019-05-03T06:32:12.243Z,9.91
2019-05-03T06:33:14.295Z,9.96
2019-05-03T06:34:12.194Z,10.06
2019-05-03T06:35:12.170Z,10.19
2019-05-03T06:36:12.146Z,10.12
2019-05-03T06:37:12.124Z,10.10
2019-05-03T06:38:12.097Z,10.28
2019-05-03T06:39:12.073Z,10.40
2019-05-03T06:40:12.049Z,10.19
2019-05-03T06:41:12.024Z,10.21
2019-05-03T06:42:15.996Z,10.09
2019-05-03T06:43:12.887Z,9.89
2019-05-03T06:44:11.952Z,9.91
2019-05-03T06:45:15.048Z,10.01
2019-05-03T06:46:11.903Z,10.19
2019-05-03T06:47:11.882Z,10.18
2019-05-03T06:48:11.858Z,10.19
2019-05-03T06:49:11.829Z,10.15
2019-05-03T06:50:11.806Z,10.09
2019-05-03T06:51:17.844Z,10.06
2019-05-03T06:52:11.758Z,10.21
2019-05-03T06:53:13.017Z,10.09
2019-05-03T06:54:11.709Z,10.14
2019-05-03T06:55:11.684Z,9.97
2019-05-03T06:56:11.660Z,10.03
2019-05-03T06:57:11.635Z,9.94
2019-05-03T06:58:11.611Z,9.96
2019-05-03T06:59:11.588Z,10.06
2019-05-03T07:00:11.566Z,10.06
2019-05-03T07:01:11.541Z,10.01
2019-05-03T07:02:11.514Z,9.89
2019-05-03T07:03:11.490Z,9.91
2019-05-03T07:04:11.466Z,9.96
2019-05-03T07:05:11.441Z,9.94
2019-05-03T07:06:11.418Z,9.89
2019-05-03T07:07:11.394Z,9.88
2019-05-03T07:08:11.371Z,9.85
2019-05-03T07:09:11.353Z,9.93
2019-05-03T07:10:11.321Z,10.15
2019-05-03T07:11:11.299Z,10.07
2019-05-03T07:12:11.272Z,10.10
2019-05-03T07:13:11.247Z,10.12
2019-05-03T07:14:11.222Z,10.14
2019-05-03T07:15:11.199Z,10.26
2019-05-03T07:16:11.175Z,10.36
2019-05-03T07:17:11.150Z,10.51
2019-05-03T07:18:11.126Z,10.51
2019-05-03T07:19:11.102Z,10.36
2019-05-03T07:20:11.077Z,10.34
2019-05-03T07:21:11.053Z,10.25
2019-05-03T07:22:11.031Z,10.14
2019-05-03T07:23:11.006Z,10.32
2019-05-03T07:24:10.982Z,10.44
2019-05-03T07:25:10.959Z,10.47
2019-05-03T07:26:10.933Z,10.59
2019-05-03T07:27:10.909Z,10.65
2019-05-03T07:28:10.886Z,10.78
2019-05-03T07:29:10.861Z,10.86
2019-05-03T07:30:10.836Z,10.92
2019-05-03T07:31:10.815Z,10.88
2019-05-03T07:32:10.790Z,10.77
2019-05-03T07:33:10.766Z,10.98
2019-05-03T07:34:10.743Z,10.98
2019-05-03T07:35:10.719Z,10.76
2019-05-03T07:36:10.697Z,10.71
2019-05-03T07:37:10.671Z,10.78
2019-05-03T07:38:10.648Z,10.83
2019-05-03T07:39:10.624Z,10.59
2019-05-03T07:40:10.601Z,10.51
2019-05-03T07:41:10.577Z,10.43
2019-05-03T07:42:10.553Z,10.55
2019-05-03T07:43:10.530Z,10.39
2019-05-03T07:44:10.506Z,10.37
2019-05-03T07:45:10.482Z,10.40
2019-05-03T07:46:10.459Z,10.47
2019-05-03T07:47:10.435Z,10.56
2019-05-03T07:48:10.476Z,10.53
2019-05-03T07:49:10.388Z,10.47
2019-05-03T07:50:10.365Z,10.36
2019-05-03T07:51:10.341Z,10.39
2019-05-03T07:52:11.798Z,10.42
2019-05-03T07:53:10.292Z,10.55
2019-05-03T07:54:10.268Z,10.37
2019-05-03T07:55:10.245Z,10.46
2019-05-03T07:56:10.221Z,10.47
2019-05-03T07:57:10.197Z,10.47
2019-05-03T07:58:10.174Z,10.62
2019-05-03T07:59:10.160Z,10.70
2019-05-03T08:00:10.126Z,10.65
2019-05-03T08:01:10.254Z,10.78
2019-05-03T08:02:10.078Z,10.71
2019-05-03T08:03:10.055Z,10.88
2019-05-03T08:04:10.031Z,10.94
2019-05-03T08:05:10.006Z,10.59
2019-05-03T08:06:09.983Z,10.53
2019-05-03T08:07:20.646Z,10.55
2019-05-03T08:08:09.936Z,10.43
2019-05-03T08:09:09.912Z,10.55
2019-05-03T08:10:09.891Z,10.47
2019-05-03T08:11:09.864Z,10.37
2019-05-03T08:12:09.840Z,10.32
2019-05-03T08:13:09.816Z,10.40
2019-05-03T08:14:09.795Z,10.53
2019-05-03T08:15:09.769Z,10.58
2019-05-03T08:16:09.745Z,10.71
2019-05-03T08:17:11.972Z,10.73
2019-05-03T08:18:09.697Z,10.55
2019-05-03T08:19:09.685Z,10.59
2019-05-03T08:20:09.651Z,10.66
2019-05-03T08:21:09.629Z,10.62
2019-05-03T08:22:09.602Z,10.55
2019-05-03T08:23:24.454Z,10.43
2019-05-03T08:24:09.555Z,10.52
2019-05-03T08:25:09.530Z,10.52
2019-05-03T08:26:09.508Z,10.40
2019-05-03T08:27:09.484Z,10.36
2019-05-03T08:28:09.461Z,10.40
2019-05-03T08:29:16.039Z,10.37
2019-05-03T08:30:09.424Z,10.40
2019-05-03T08:31:09.388Z,10.34
2019-05-03T08:32:09.365Z,10.51
2019-05-03T08:33:09.340Z,10.51
2019-05-03T08:34:09.316Z,10.47
2019-05-03T08:35:09.292Z,10.44
2019-05-03T08:36:09.269Z,10.51
2019-05-03T08:37:09.244Z,10.37
2019-05-03T08:38:09.221Z,10.37
2019-05-03T08:39:09.202Z,10.36
2019-05-03T08:40:09.171Z,10.53
2019-05-03T08:41:09.148Z,10.52
2019-05-03T08:42:09.126Z,10.80
2019-05-03T08:43:09.101Z,10.65
2019-05-03T08:44:09.077Z,10.65
2019-05-03T08:45:09.052Z,10.66
2019-05-03T08:46:09.028Z,10.51
2019-05-03T08:47:09.005Z,10.51
2019-05-03T08:48:08.981Z,10.55
2019-05-03T08:49:08.956Z,10.43
2019-05-03T08:50:11.186Z,10.56
2019-05-03T08:51:08.909Z,10.52
2019-05-03T08:52:08.884Z,10.52
2019-05-03T08:53:08.861Z,10.66
2019-05-03T08:54:08.844Z,10.89
2019-05-03T08:55:08.813Z,10.51
2019-05-03T08:56:08.789Z,10.52
2019-05-03T08:57:08.778Z,10.66
2019-05-03T08:58:08.741Z,10.55
2019-05-03T08:59:08.716Z,10.70
2019-05-03T09:00:08.694Z,10.68
2019-05-03T09:01:08.669Z,10.52
2019-05-03T09:02:17.551Z,10.53
2019-05-03T09:03:08.621Z,10.68
2019-05-03T09:04:08.597Z,10.53
2019-05-03T09:05:08.574Z,10.47
2019-05-03T09:06:08.551Z,10.52
2019-05-03T09:07:08.526Z,10.60
2019-05-03T09:08:08.502Z,10.66
2019-05-03T09:09:08.478Z,10.77
2019-05-03T09:10:12.324Z,10.84
2019-05-03T09:11:08.432Z,10.98
2019-05-03T09:12:08.408Z,10.62
2019-05-03T09:13:08.386Z,10.73
2019-05-03T09:14:08.358Z,10.83
2019-05-03T09:15:08.335Z,10.92
2019-05-03T09:16:08.332Z,10.98
2019-05-03T09:17:08.286Z,11.02
2019-05-03T09:18:08.281Z,10.83
2019-05-03T09:19:08.239Z,10.94
2019-05-03T09:20:08.218Z,10.77
2019-05-03T09:21:08.191Z,10.78
2019-05-03T09:22:08.167Z,10.70
2019-05-03T09:23:08.144Z,10.84
2019-05-03T09:24:08.120Z,10.71
2019-05-03T09:25:08.102Z,10.91
2019-05-03T09:26:08.073Z,10.83
2019-05-03T09:27:08.049Z,10.86
2019-05-03T09:28:08.025Z,10.94
2019-05-03T09:29:07.999Z,11.09
2019-05-03T09:30:07.977Z,11.09
2019-05-03T09:31:07.954Z,11.06
2019-05-03T09:32:07.932Z,10.98
2019-05-03T09:33:09.187Z,10.86
2019-05-03T09:34:08.415Z,10.80
2019-05-03T09:35:07.859Z,10.89
2019-05-03T09:36:07.836Z,10.98
2019-05-03T09:37:07.811Z,10.88
2019-05-03T09:38:07.787Z,10.91
2019-05-03T09:39:07.767Z,11.13
2019-05-03T09:40:07.741Z,11.25
2019-05-03T09:41:07.723Z,11.31
2019-05-03T09:42:07.693Z,11.36
2019-05-03T09:43:07.671Z,11.29
2019-05-03T09:44:07.647Z,11.13
2019-05-03T09:45:07.622Z,11.11
2019-05-03T09:46:07.600Z,11.28
2019-05-03T09:47:07.583Z,11.41
2019-05-03T09:48:07.553Z,11.75
2019-05-03T09:49:12.794Z,11.71
2019-05-03T09:50:07.506Z,11.70
2019-05-03T09:51:07.483Z,11.71
2019-05-03T09:52:08.478Z,11.70
2019-05-03T09:53:09.039Z,11.61
2019-05-03T09:54:07.413Z,11.59
2019-05-03T09:55:07.391Z,11.74
2019-05-03T09:56:07.367Z,12.02
2019-05-03T09:57:07.344Z,12.20
2019-05-03T09:58:07.323Z,12.26
2019-05-03T09:59:07.299Z,12.24
2019-05-03T10:00:10.288Z,12.21
2019-05-03T10:01:08.637Z,12.38
2019-05-03T10:02:07.232Z,12.57
2019-05-03T10:03:07.209Z,12.70
2019-05-03T10:04:07.185Z,12.57
2019-05-03T10:05:07.161Z,12.60
2019-05-03T10:06:07.891Z,12.44
2019-05-03T10:07:07.117Z,12.05
2019-05-03T10:08:07.095Z,12.23
2019-05-03T10:09:07.076Z,11.89
2019-05-03T10:10:07.054Z,11.74
2019-05-03T10:11:07.039Z,11.87
2019-05-03T10:12:07.007Z,12.21
2019-05-03T10:13:14.375Z,12.44
2019-05-03T10:14:06.968Z,12.63
2019-05-03T10:15:06.940Z,12.56
2019-05-03T10:16:06.920Z,12.67
2019-05-03T10:17:08.397Z,12.56
2019-05-03T10:18:10.815Z,12.59
2019-05-03T10:19:06.853Z,12.78
2019-05-03T10:20:06.831Z,13.03
2019-05-03T10:21:06.808Z,13.00
2019-05-03T10:22:06.787Z,12.97
2019-05-03T10:23:06.764Z,13.02
2019-05-03T10:24:06.806Z,13.09
2019-05-03T10:25:07.543Z,13.02
2019-05-03T10:26:06.702Z,13.14
2019-05-03T10:27:06.680Z,12.88
2019-05-03T10:28:06.656Z,12.93
2019-05-03T10:29:06.634Z,12.96
2019-05-03T10:30:12.518Z,12.64
2019-05-03T10:31:07.822Z,12.84
2019-05-03T10:32:06.571Z,12.99
2019-05-03T10:33:06.548Z,13.22
2019-05-03T10:34:07.329Z,13.09
2019-05-03T10:35:06.506Z,13.03
2019-05-03T10:36:06.485Z,13.11
2019-05-03T10:37:06.463Z,13.09
2019-05-03T10:38:06.451Z,13.27
2019-05-03T10:39:06.421Z,13.58
2019-05-03T10:40:08.117Z,13.69
2019-05-03T10:41:06.377Z,13.67
2019-05-03T10:42:06.357Z,13.62
2019-05-03T10:43:06.336Z,13.76
2019-05-03T10:44:06.319Z,13.67
2019-05-03T10:45:06.294Z,13.62
2019-05-03T10:46:06.272Z,13.17
2019-05-03T10:47:06.251Z,12.81
2019-05-03T10:48:06.229Z,12.82
2019-05-03T10:49:06.208Z,13.03
2019-05-03T10:50:09.190Z,13.25
2019-05-03T10:51:06.167Z,12.87
2019-05-03T10:52:06.149Z,12.66
2019-05-03T10:53:06.123Z,12.81
2019-05-03T10:54:06.122Z,12.87
2019-05-03T10:55:06.082Z,12.97
2019-05-03T10:56:06.813Z,12.97
2019-05-03T10:57:06.038Z,12.81
2019-05-03T10:58:06.017Z,12.70
2019-05-03T10:59:06.387Z,12.62
2019-05-03T11:00:05.979Z,12.27
2019-05-03T11:01:05.955Z,12.19
2019-05-03T11:02:05.939Z,11.86
2019-05-03T11:03:05.915Z,11.64
2019-05-03T11:04:05.889Z,11.49
2019-05-03T11:05:05.865Z,11.49
2019-05-03T11:06:05.843Z,11.62
2019-05-03T11:07:05.821Z,11.49
2019-05-03T11:08:05.800Z,11.53
2019-05-03T11:09:05.919Z,11.59
2019-05-03T11:10:05.754Z,11.65
2019-05-03T11:11:05.958Z,11.68
2019-05-03T11:12:05.714Z,11.62
2019-05-03T11:13:05.898Z,11.74
2019-05-03T11:14:05.721Z,11.64
2019-05-03T11:15:05.643Z,11.52
2019-05-03T11:16:05.683Z,11.67
2019-05-03T11:17:05.801Z,11.61
2019-05-03T11:18:05.735Z,11.54
2019-05-03T11:19:05.664Z,11.41
2019-05-03T11:20:05.533Z,11.53
2019-05-03T11:21:05.507Z,11.57
2019-05-03T11:22:05.693Z,11.50
2019-05-03T11:23:05.897Z,11.68
2019-05-03T11:24:05.440Z,11.80
2019-05-03T11:25:05.429Z,11.96
2019-05-03T11:26:05.397Z,11.80
2019-05-03T11:27:05.371Z,11.75
2019-05-03T11:28:05.349Z,11.59
2019-05-03T11:29:05.400Z,11.62
2019-05-03T11:30:05.304Z,11.70
2019-05-03T11:31:05.287Z,11.77
2019-05-03T11:32:09.152Z,11.77
2019-05-03T11:33:05.236Z,11.99
2019-05-03T11:34:05.256Z,12.04
2019-05-03T11:35:05.191Z,11.99
2019-05-03T11:36:05.169Z,11.80
2019-05-03T11:37:05.147Z,11.87
2019-05-03T11:38:05.517Z,11.94
2019-05-03T11:39:06.603Z,11.52
2019-05-03T11:40:05.183Z,11.50
2019-05-03T11:41:05.056Z,11.44
2019-05-03T11:42:05.035Z,11.38
2019-05-03T11:43:05.011Z,11.20
2019-05-03T11:44:04.988Z,11.13
2019-05-03T11:45:06.466Z,11.19
2019-05-03T11:46:04.942Z,11.35
2019-05-03T11:47:05.772Z,11.50
2019-05-03T11:48:04.897Z,11.32
2019-05-03T11:49:05.648Z,11.29
2019-05-03T11:50:04.854Z,11.34
2019-05-03T11:51:05.582Z,11.47
2019-05-03T11:52:06.474Z,11.80
2019-05-03T11:53:05.263Z,11.64
2019-05-03T11:54:05.887Z,11.90
2019-05-03T11:55:10.889Z,11.93
2019-05-03T11:56:05.533Z,11.97
2019-05-03T11:57:05.069Z,12.21
2019-05-03T11:58:05.616Z,12.16
2019-05-03T11:59:05.304Z,12.37
2019-05-03T12:00:05.343Z,12.48
2019-05-03T12:01:13.153Z,12.56
2019-05-03T12:02:04.826Z,12.27
2019-05-03T12:03:05.012Z,12.24
2019-05-03T12:04:04.982Z,12.63
2019-05-03T12:05:04.983Z,12.60
2019-05-03T12:06:04.962Z,13.02
2019-05-03T12:07:05.914Z,12.71
2019-05-03T12:08:05.422Z,12.93
2019-05-03T12:09:05.626Z,12.96
2019-05-03T12:10:13.755Z,12.99
2019-05-03T12:11:05.802Z,13.09
2019-05-03T12:12:04.870Z,13.46
2019-05-03T12:13:05.861Z,13.22
2019-05-03T12:14:06.795Z,12.89
2019-05-03T12:15:04.390Z,12.97
2019-05-03T12:16:14.740Z,12.99
2019-05-03T12:17:18.724Z,13.30
2019-05-03T12:18:05.849Z,13.36
2019-05-03T12:19:16.518Z,13.14
2019-05-03T12:20:07.132Z,13.46
2019-05-03T12:21:08.156Z,13.71
2019-05-03T12:22:06.205Z,13.40
2019-05-03T12:23:06.190Z,13.59
2019-05-03T12:24:06.365Z,13.38
2019-05-03T12:25:09.830Z,13.11
2019-05-03T12:26:09.729Z,13.00
2019-05-03T12:27:04.736Z,13.37
2019-05-03T12:28:05.824Z,13.38
2019-05-03T12:29:04.587Z,13.58
2019-05-03T12:30:04.977Z,13.56
2019-05-03T12:31:04.848Z,13.92
2019-05-03T12:32:05.237Z,13.58
2019-05-03T12:33:05.980Z,13.71
2019-05-03T12:34:05.833Z,13.54
2019-05-03T12:35:05.956Z,13.49
2019-05-03T12:36:05.377Z,13.52
2019-05-03T12:37:05.137Z,13.71
2019-05-03T12:38:05.515Z,13.94
2019-05-03T12:39:05.655Z,13.99
2019-05-03T12:40:05.534Z,14.12
2019-05-03T12:41:05.573Z,14.24
2019-05-03T12:42:05.669Z,14.19
2019-05-03T12:43:05.927Z,14.06
2019-05-03T12:44:04.637Z,14.14
2019-05-03T12:45:04.583Z,13.98
2019-05-03T12:46:05.158Z,13.92
2019-05-03T12:47:05.964Z,13.92
2019-05-03T12:48:04.967Z,14.01
2019-05-03T12:49:05.273Z,13.98
2019-05-03T12:50:05.345Z,13.95
2019-05-03T12:51:05.811Z,13.76
2019-05-03T12:52:05.228Z,13.80
2019-05-03T12:53:04.804Z,13.98
2019-05-03T12:54:04.852Z,13.98
2019-05-03T12:55:04.584Z,13.56
2019-05-03T12:56:09.839Z,13.61
2019-05-03T12:57:05.086Z,13.58
2019-05-03T12:58:05.887Z,13.59
2019-05-03T12:59:05.569Z,13.61
2019-05-03T13:00:05.016Z,13.36
2019-05-03T13:01:04.913Z,12.96